createdAt,value
2022-08-14T00:01:11.603Z,99556.13
2022-08-14T00:03:42.979Z,99568.81
2022-08-14T00:06:28.549Z,99565.59
2022-08-14T00:09:02.142Z,99554.78
2022-08-14T00:11:38.700Z,99562.34
2022-08-14T00:14:17.294Z,99558.84
2022-08-14T00:16:49.987Z,99560.72
2022-08-14T00:19:26.717Z,99554.00
2022-08-14T00:21:59.637Z,99554.78
2022-08-14T00:24:30.620Z,99546.69
2022-08-14T00:27:05.368Z,99544.00
2022-08-14T00:29:40.605Z,99539.69
2022-08-14T00:32:50.621Z,99534.56
2022-08-14T00:35:09.268Z,99521.88
2022-08-14T00:37:49.336Z,99518.91
2022-08-14T00:40:33.460Z,99511.06
2022-08-14T00:43:07.296Z,99514.56
2022-08-14T00:45:39.182Z,99515.41
2022-08-14T00:48:15.575Z,99514.56
2022-08-14T00:51:08.019Z,99528.38
2022-08-14T00:53:43.087Z,99528.91
2022-08-14T00:56:17.546Z,99534.56
2022-08-14T00:58:49.293Z,99530.75
2022-08-14T01:01:20.691Z,99519.16
2022-08-14T01:03:55.014Z,99524.56
2022-08-14T01:06:30.299Z,99529.16
2022-08-14T01:09:05.855Z,99524.03
2022-08-14T01:11:41.318Z,99522.97
2022-08-14T01:14:28.412Z,99519.97
2022-08-14T01:16:59.880Z,99505.13
2022-08-14T01:19:49.422Z,99506.47
2022-08-14T01:22:20.437Z,99498.63
2022-08-14T01:24:51.048Z,99504.03
2022-08-14T01:27:24.522Z,99501.31
2022-08-14T01:30:03.221Z,99506.19
2022-08-14T01:32:42.762Z,99497.53
2022-08-14T01:35:20.559Z,99507.25
2022-08-14T01:38:05.825Z,99504.53
2022-08-14T01:40:41.675Z,99495.63
2022-08-14T01:43:35.823Z,99493.22
2022-08-14T01:46:45.954Z,99489.44
2022-08-14T01:49:35.335Z,99489.44
2022-08-14T01:52:34.291Z,99485.63
2022-08-14T01:55:27.670Z,99486.47
2022-08-14T01:58:21.061Z,99504.81
2022-08-14T02:01:09.590Z,99499.13
2022-08-14T02:04:40.703Z,99490.22
2022-08-14T02:07:08.998Z,99491.56
2022-08-14T02:09:45.618Z,99493.47
2022-08-14T02:12:29.394Z,99491.31
2022-08-14T02:15:02.578Z,99492.69
2022-08-14T02:17:36.235Z,99484.84
2022-08-14T02:20:12.276Z,99478.13
2022-08-14T02:22:47.931Z,99483.53
2022-08-14T02:25:19.200Z,99484.06
2022-08-14T02:28:23.242Z,99477.03
2022-08-14T02:30:42.620Z,99473.81
2022-08-14T02:33:14.145Z,99474.34
2022-08-14T02:35:52.918Z,99478.13
2022-08-14T02:38:30.490Z,99474.91
2022-08-14T02:41:08.990Z,99467.88
2022-08-14T02:43:48.247Z,99467.06
2022-08-14T02:46:24.546Z,99464.38
2022-08-14T02:49:05.368Z,99454.66
2022-08-14T02:51:37.726Z,99443.06
2022-08-14T02:54:13.255Z,99441.94
2022-08-14T02:57:15.615Z,99444.66
2022-08-14T02:59:43.321Z,99436.03
2022-08-14T03:02:56.423Z,99429.03
2022-08-14T03:06:10.347Z,99432.00
2022-08-14T03:09:05.062Z,99429.56
2022-08-14T03:12:40.523Z,99425.25
2022-08-14T03:15:25.478Z,99413.88
2022-08-14T03:17:58.395Z,99407.41
2022-08-14T03:20:47.604Z,99401.19
2022-08-14T03:23:44.283Z,99406.06
2022-08-14T03:29:44.013Z,99393.41
2022-08-14T03:32:14.539Z,99388.28
2022-08-14T03:35:39.610Z,99390.19
2022-08-14T03:45:19.168Z,99380.72
2022-08-14T03:47:03.127Z,99384.22
2022-08-14T03:49:34.159Z,99381.53
2022-08-14T03:52:17.939Z,99381.53
2022-08-14T03:55:00.685Z,99373.69
2022-08-14T03:57:37.347Z,99358.88
2022-08-14T04:00:13.831Z,99350.00
2022-08-14T04:03:06.451Z,99343.50
2022-08-14T04:05:48.958Z,99344.88
2022-08-14T04:08:30.055Z,99337.84
2022-08-14T04:11:10.107Z,99332.44
2022-08-14T04:13:43.955Z,99330.84
2022-08-14T04:16:19.691Z,99335.13
2022-08-14T04:18:54.562Z,99334.34
2022-08-14T04:21:39.645Z,99335.13
2022-08-14T04:24:09.925Z,99351.59
2022-08-14T04:26:42.570Z,99340.28
2022-08-14T04:29:17.762Z,99351.34
2022-08-14T04:32:58.685Z,99344.88
2022-08-14T04:34:46.746Z,99338.44
2022-08-14T04:37:45.520Z,99347.34
2022-08-14T04:40:40.547Z,99355.44
2022-08-14T04:43:38.568Z,99343.84
2022-08-14T04:46:56.667Z,99341.69
2022-08-14T04:49:09.446Z,99329.03
2022-08-14T04:52:27.438Z,99324.44
2022-08-14T04:55:38.518Z,99318.53
2022-08-14T05:01:55.182Z,99325.53
2022-08-14T05:05:14.099Z,99326.09
2022-08-14T05:14:43.101Z,99326.09
2022-08-14T05:17:44.054Z,99316.91
2022-08-14T05:21:55.108Z,99307.47
2022-08-14T05:24:19.013Z,99281.56
2022-08-14T05:26:50.052Z,99276.16
2022-08-14T05:29:22.695Z,99273.19
2022-08-14T05:31:55.832Z,99273.19
2022-08-14T05:34:32.242Z,99265.03
2022-08-14T05:37:06.814Z,99269.91
2022-08-14T05:39:37.801Z,99260.19
2022-08-14T05:42:21.498Z,99267.72
2022-08-14T05:44:54.205Z,99270.41
2022-08-14T05:47:28.556Z,99267.97
2022-08-14T05:50:04.239Z,99263.13
2022-08-14T05:52:39.361Z,99258.25
2022-08-14T05:55:22.181Z,99252.56
2022-08-14T05:57:57.907Z,99235.81
2022-08-14T06:00:37.135Z,99238.50
2022-08-14T06:03:13.618Z,99239.56
2022-08-14T06:05:51.344Z,99239.84
2022-08-14T06:08:35.639Z,99237.41
2022-08-14T06:15:21.037Z,99228.97
2022-08-14T06:18:52.750Z,99232.50
2022-08-14T06:21:26.746Z,99227.09
2022-08-14T06:23:58.704Z,99235.47
2022-08-14T06:26:30.741Z,99229.78
2022-08-14T06:29:02.174Z,99226.84
2022-08-14T06:31:33.021Z,99218.22
2022-08-14T06:35:03.241Z,99222.53
2022-08-14T06:36:58.876Z,99212.00
2022-08-14T06:39:36.358Z,99208.78
2022-08-14T06:42:07.668Z,99203.38
2022-08-14T06:44:56.404Z,99204.50
2022-08-14T06:47:27.121Z,99205.56
2022-08-14T06:50:01.322Z,99202.31
2022-08-14T07:01:34.537Z,99179.06
2022-08-14T07:04:24.608Z,99184.19
2022-08-14T07:06:59.155Z,99168.50
2022-08-14T07:09:43.388Z,99174.44
2022-08-14T07:12:56.269Z,99169.03
2022-08-14T07:15:12.662Z,99154.47
2022-08-14T07:17:52.434Z,99143.38
2022-08-14T07:20:30.939Z,99139.56
2022-08-14T07:23:10.864Z,99136.88
2022-08-14T07:25:44.355Z,99133.09
2022-08-14T07:28:21.092Z,99131.44
2022-08-14T07:31:04.908Z,99133.88
2022-08-14T07:33:50.654Z,99134.13
2022-08-14T07:36:30.297Z,99130.38
2022-08-14T07:39:13.144Z,99130.88
2022-08-14T07:41:46.338Z,99127.66
2022-08-14T07:44:32.400Z,99132.50
2022-08-14T07:47:25.907Z,99133.59
2022-08-14T07:53:30.620Z,99130.09
2022-08-14T07:59:41.020Z,99116.88
2022-08-14T08:02:29.378Z,99115.75
2022-08-14T08:05:07.098Z,99107.94
2022-08-14T08:15:51.607Z,99108.78
2022-08-14T08:22:27.272Z,99107.69
2022-08-14T08:25:55.499Z,99106.34
2022-08-14T08:28:37.834Z,99107.69
2022-08-14T08:31:32.996Z,99101.50
2022-08-14T08:34:14.329Z,99115.81
2022-08-14T08:36:49.694Z,99110.13
2022-08-14T08:39:22.087Z,99102.31
2022-08-14T08:41:54.034Z,99101.22
2022-08-14T08:44:34.543Z,99094.75
2022-08-14T08:47:09.364Z,99093.69
2022-08-14T08:49:52.793Z,99082.88
2022-08-14T08:52:32.300Z,99098.28
2022-08-14T08:55:04.431Z,99099.69
2022-08-14T08:57:39.170Z,99089.66
2022-08-14T09:00:25.431Z,99084.56
2022-08-14T09:03:10.058Z,99082.66
2022-08-14T09:06:00.655Z,99079.16
2022-08-14T09:08:41.945Z,99086.97
2022-08-14T09:11:23.089Z,99084.28
2022-08-14T09:14:05.826Z,99076.19
2022-08-14T09:16:46.415Z,99078.09
2022-08-14T09:19:20.068Z,99088.06
2022-08-14T09:21:54.963Z,99086.19
2022-08-14T09:24:30.759Z,99093.44
2022-08-14T09:27:22.489Z,99105.63
2022-08-14T09:30:30.543Z,99105.63
2022-08-14T09:33:00.134Z,99111.31
2022-08-14T09:36:24.455Z,99089.44
2022-08-14T09:39:39.973Z,99081.34
2022-08-14T09:42:17.382Z,99076.47
2022-08-14T09:45:25.890Z,99082.13
2022-08-14T09:48:02.171Z,99073.25
2022-08-14T09:50:55.620Z,99070.25
2022-08-14T09:54:19.094Z,99076.22
2022-08-14T09:56:59.433Z,99090.78
2022-08-14T09:59:32.079Z,99092.16
2022-08-14T10:02:03.755Z,99092.72
2022-08-14T10:04:41.145Z,99091.94
2022-08-14T10:07:17.099Z,99084.63
2022-08-14T10:09:59.503Z,99067.91
2022-08-14T10:12:53.116Z,99061.44
2022-08-14T10:15:29.998Z,99060.34
2022-08-14T10:21:25.987Z,99067.88
2022-08-14T10:24:08.487Z,99076.25
2022-08-14T10:27:39.788Z,99088.38
2022-08-14T10:30:25.589Z,99074.06
2022-08-14T10:37:14.268Z,99092.16
2022-08-14T10:42:58.463Z,99081.38
2022-08-14T10:45:41.905Z,99089.19
2022-08-14T10:48:24.343Z,99090.56
2022-08-14T10:51:08.621Z,99089.47
2022-08-14T10:53:40.662Z,99095.94
2022-08-14T10:56:21.734Z,99086.78
2022-08-14T10:59:10.939Z,99101.34
2022-08-14T11:02:13.452Z,99100.53
2022-08-14T11:05:15.115Z,99107.56
2022-08-14T11:11:04.773Z,99108.38
2022-08-14T11:13:50.851Z,99111.34
2022-08-14T11:16:28.727Z,99110.28
2022-08-14T11:19:07.094Z,99098.66
2022-08-14T11:22:55.690Z,99100.28
2022-08-14T11:25:44.089Z,99097.56
2022-08-14T11:28:46.267Z,99091.38
2022-08-14T11:31:22.441Z,99094.34
2022-08-14T11:33:55.595Z,99105.16
2022-08-14T11:36:56.986Z,99085.44
2022-08-14T11:39:34.749Z,99091.66
2022-08-14T11:42:56.666Z,99106.75
2022-08-14T11:45:11.315Z,99112.41
2022-08-14T11:48:13.450Z,99108.91
2022-08-14T11:50:39.249Z,99111.63
2022-08-14T11:53:33.004Z,99112.41
2022-08-14T11:56:11.347Z,99125.13
2022-08-14T11:58:45.168Z,99129.44
2022-08-14T12:01:20.871Z,99140.22
2022-08-14T12:03:57.319Z,99130.50
2022-08-14T12:06:39.186Z,99136.19
2022-08-14T12:09:14.929Z,99146.72
2022-08-14T12:11:47.132Z,99156.69
2022-08-14T12:14:30.016Z,99162.09
2022-08-14T12:17:12.106Z,99173.41
2022-08-14T12:19:56.765Z,99169.94
2022-08-14T12:22:43.285Z,99164.53
2022-08-14T12:25:24.586Z,99166.13
2022-08-14T12:28:26.782Z,99170.72
2022-08-14T12:31:26.699Z,99171.50
2022-08-14T12:34:44.915Z,99166.69
2022-08-14T12:38:30.313Z,99156.69
2022-08-14T12:41:37.664Z,99157.50
2022-08-14T12:44:21.892Z,99156.97
2022-08-14T12:47:07.392Z,99174.25
2022-08-14T12:49:41.701Z,99174.25
2022-08-14T12:52:17.173Z,99172.91
2022-08-14T12:55:01.580Z,99158.06
2022-08-14T12:57:47.293Z,99161.59
2022-08-14T13:00:27.112Z,99159.94
2022-08-14T13:02:58.845Z,99160.19
2022-08-14T13:05:32.747Z,99165.59
2022-08-14T13:08:33.426Z,99165.59
2022-08-14T13:11:08.151Z,99164.00
2022-08-14T13:13:49.042Z,99169.94
2022-08-14T13:16:37.735Z,99164.81
2022-08-14T13:19:13.239Z,99156.97
2022-08-14T13:21:58.592Z,99156.97
2022-08-14T13:24:36.874Z,99158.88
2022-08-14T13:27:10.082Z,99162.66
2022-08-14T13:29:47.107Z,99153.75
2022-08-14T13:32:19.902Z,99148.38
2022-08-14T13:34:52.876Z,99148.38
2022-08-14T13:37:24.247Z,99144.03
2022-08-14T13:39:57.919Z,99133.78
2022-08-14T13:42:34.286Z,99139.16
2022-08-14T13:45:10.399Z,99140.78
2022-08-14T13:47:46.568Z,99131.06
2022-08-14T13:50:20.690Z,99125.66
2022-08-14T13:52:57.040Z,99118.41
2022-08-14T13:55:35.595Z,99110.59
2022-08-14T13:58:07.964Z,99110.59
2022-08-14T14:01:27.611Z,99099.78
2022-08-14T14:04:30.052Z,99102.22
2022-08-14T14:10:28.699Z,99082.50
2022-08-14T14:16:30.285Z,99066.91
2022-08-14T14:22:35.654Z,99059.88
2022-08-14T14:25:25.047Z,99046.66
2022-08-14T14:28:23.838Z,99053.44
2022-08-14T14:31:05.887Z,99059.91
2022-08-14T14:33:58.816Z,99054.50
2022-08-14T14:36:34.522Z,99050.22
2022-08-14T14:39:20.385Z,99052.91
2022-08-14T14:42:13.622Z,99044.28
2022-08-14T14:44:58.546Z,99050.25
2022-08-14T14:47:34.447Z,99045.66
2022-08-14T14:50:12.901Z,99037.84
2022-08-14T14:52:48.456Z,99046.22
2022-08-14T14:55:54.306Z,99049.44
2022-08-14T14:58:32.541Z,99062.13
2022-08-14T15:01:25.347Z,99052.41
2022-08-14T15:03:57.247Z,99069.41
2022-08-14T15:06:38.014Z,99055.09
2022-08-14T15:09:44.386Z,99064.81
2022-08-14T15:15:51.474Z,99060.81
2022-08-14T15:18:54.297Z,99060.81
2022-08-14T15:25:11.853Z,99048.13
2022-08-14T15:27:54.669Z,99047.31
2022-08-14T15:30:32.146Z,99048.38
2022-08-14T15:33:20.357Z,99048.13
2022-08-14T15:36:25.903Z,99053.00
2022-08-14T15:39:09.544Z,99057.81
2022-08-14T15:41:58.353Z,99057.81
2022-08-14T15:44:44.808Z,99058.91
2022-08-14T15:47:41.538Z,99057.81
2022-08-14T15:50:35.806Z,99050.81
2022-08-14T15:53:23.250Z,99045.94
2022-08-14T15:56:02.895Z,99048.91
2022-08-14T15:58:34.028Z,99037.59
2022-08-14T16:01:50.661Z,99036.81
2022-08-14T16:04:30.156Z,99051.38
2022-08-14T16:07:02.193Z,99046.53
2022-08-14T16:10:28.297Z,99055.19
2022-08-14T16:16:49.159Z,99057.63
2022-08-14T16:19:28.439Z,99048.69
2022-08-14T16:22:59.466Z,99055.72
2022-08-14T16:25:34.547Z,99047.63
2022-08-14T16:28:08.596Z,99048.94
2022-08-14T16:30:46.744Z,99045.19
2022-08-14T16:33:56.381Z,99031.97
2022-08-14T16:36:32.940Z,99047.59
2022-08-14T16:39:09.938Z,99042.72
2022-08-14T16:41:45.636Z,99035.69
2022-08-14T16:44:33.502Z,99039.75
2022-08-14T16:47:06.965Z,99037.84
2022-08-14T16:50:04.026Z,99048.63
2022-08-14T16:52:43.879Z,99042.16
2022-08-14T16:55:17.797Z,99028.69
2022-08-14T16:57:58.886Z,99033.53
2022-08-14T17:00:43.585Z,99028.69
2022-08-14T17:03:16.626Z,99024.13
2022-08-14T17:05:47.857Z,99029.00
2022-08-14T17:08:33.251Z,99040.06
2022-08-14T17:11:13.911Z,99031.97
2022-08-14T17:13:59.511Z,99021.97
2022-08-14T17:16:39.929Z,99033.34
2022-08-14T17:19:14.293Z,99024.44
2022-08-14T17:21:47.905Z,99031.44
2022-08-14T17:24:57.483Z,99027.38
2022-08-14T17:27:18.380Z,99022.81
2022-08-14T17:29:56.359Z,99012.00
2022-08-14T17:32:44.484Z,99018.47
2022-08-14T17:35:57.781Z,99021.97
2022-08-14T17:38:33.732Z,99014.16
2022-08-14T17:41:36.003Z,99017.41
2022-08-14T17:44:44.825Z,99021.97
2022-08-14T17:47:17.818Z,99014.75
2022-08-14T17:49:51.940Z,99014.75
2022-08-14T17:52:34.957Z,99008.00
2022-08-14T17:56:02.088Z,99015.06
2022-08-14T17:58:20.486Z,99011.00
2022-08-14T18:01:04.646Z,99013.19
2022-08-14T18:03:50.891Z,99020.75
2022-08-14T18:06:39.296Z,99019.13
2022-08-14T18:09:26.352Z,99015.91
2022-08-14T18:12:07.730Z,99017.78
2022-08-14T18:14:48.592Z,99020.22
2022-08-14T18:17:22.998Z,99022.63
2022-08-14T18:19:53.712Z,99020.22
2022-08-14T18:22:32.194Z,99021.53
2022-08-14T18:25:19.153Z,99024.22
2022-08-14T18:27:53.528Z,99021.28
2022-08-14T18:30:33.094Z,99032.06
2022-08-14T18:33:24.401Z,99030.47
2022-08-14T18:35:59.234Z,99029.91
2022-08-14T18:38:46.023Z,99038.56
2022-08-14T18:41:36.292Z,99036.16
2022-08-14T18:44:10.355Z,99032.94
2022-08-14T18:47:08.474Z,99035.31
2022-08-14T18:50:27.963Z,99043.72
2022-08-14T18:53:04.719Z,99026.22
2022-08-14T18:55:36.849Z,99038.06
2022-08-14T18:58:57.158Z,99020.28
2022-08-14T19:01:30.843Z,99019.75
2022-08-14T19:04:04.040Z,99023.00
2022-08-14T19:06:41.693Z,99028.38
2022-08-14T19:09:50.905Z,99022.47
2022-08-14T19:12:58.042Z,99024.06
2022-08-14T19:15:41.344Z,99028.66
2022-08-14T19:18:26.138Z,99025.19
2022-08-14T19:21:02.200Z,99023.28
2022-08-14T19:23:44.641Z,99021.38
2022-08-14T19:26:35.405Z,99018.69
2022-08-14T19:29:36.283Z,99029.78
2022-08-14T19:32:37.538Z,99031.38
2022-08-14T19:35:16.722Z,99034.34
2022-08-14T19:37:53.982Z,99040.56
2022-08-14T19:40:41.263Z,99039.44
2022-08-14T19:43:55.070Z,99032.75
2022-08-14T19:46:39.133Z,99038.94
2022-08-14T19:49:06.756Z,99041.91
2022-08-14T19:51:50.886Z,99049.47
2022-08-14T19:54:30.977Z,99045.44
2022-08-14T19:57:01.260Z,99051.13
2022-08-14T19:59:36.527Z,99050.56
2022-08-14T20:02:08.730Z,99046.28
2022-08-14T20:04:45.787Z,99039.00
2022-08-14T20:07:59.912Z,99047.88
2022-08-14T20:11:04.858Z,99046.78
2022-08-14T20:13:32.951Z,99046.00
2022-08-14T20:16:12.843Z,99047.59
2022-08-14T20:18:51.146Z,99046.00
2022-08-14T20:21:22.590Z,99046.00
2022-08-14T20:24:40.197Z,99052.97
2022-08-14T20:27:33.505Z,99039.50
2022-08-14T20:30:33.917Z,99047.88
2022-08-14T20:33:11.666Z,99053.53
2022-08-14T20:35:42.996Z,99059.75
2022-08-14T20:38:30.715Z,99055.97
2022-08-14T20:41:06.545Z,99054.38
2022-08-14T20:44:00.926Z,99049.50
2022-08-14T20:46:39.565Z,99049.50
2022-08-14T20:49:20.399Z,99049.75
2022-08-14T20:52:05.189Z,99052.47
2022-08-14T20:54:51.830Z,99052.19
2022-08-14T20:57:22.310Z,99047.31
2022-08-14T20:59:57.255Z,99057.03
2022-08-14T21:02:50.307Z,99055.41
2022-08-14T21:05:33.905Z,99056.22
2022-08-14T21:08:09.766Z,99064.03
2022-08-14T21:10:56.694Z,99066.44
2022-08-14T21:14:20.963Z,99063.47
2022-08-14T21:16:33.218Z,99060.25
2022-08-14T21:19:05.478Z,99062.44
2022-08-14T21:21:40.360Z,99065.13
2022-08-14T21:24:46.834Z,99068.63
2022-08-14T21:27:13.126Z,99063.22
2022-08-14T21:29:55.214Z,99057.84
2022-08-14T21:32:47.019Z,99058.94
2022-08-14T21:35:23.221Z,99077.50
2022-08-14T21:37:54.945Z,99075.38
2022-08-14T21:40:42.667Z,99085.88
2022-08-14T21:43:20.402Z,99084.00
2022-08-14T21:45:55.859Z,99080.50
2022-08-14T21:48:31.171Z,99079.41
2022-08-14T21:51:56.149Z,99086.16
2022-08-14T21:54:01.227Z,99086.72
2022-08-14T21:56:39.737Z,99089.41
2022-08-14T21:59:17.568Z,99096.66
2022-08-14T22:01:59.416Z,99087.75
2022-08-14T22:04:40.022Z,99086.72
2022-08-14T22:07:18.074Z,99101.50
2022-08-14T22:09:55.058Z,99102.34
2022-08-14T22:12:58.388Z,99107.16
2022-08-14T22:15:19.925Z,99108.78
2022-08-14T22:17:54.777Z,99112.28
2022-08-14T22:20:29.303Z,99111.75
2022-08-14T22:23:03.299Z,99111.75
2022-08-14T22:25:41.142Z,99112.53
2022-08-14T22:28:18.845Z,99113.38
2022-08-14T22:30:54.746Z,99107.16
2022-08-14T22:33:31.313Z,99109.06
2022-08-14T22:36:24.811Z,99118.75
2022-08-14T22:38:55.795Z,99120.34
2022-08-14T22:41:31.504Z,99112.78
2022-08-14T22:44:17.362Z,99126.00
2022-08-14T22:46:48.866Z,99121.97
2022-08-14T22:50:28.996Z,99138.94
2022-08-14T22:52:31.690Z,99130.31
2022-08-14T22:55:05.808Z,99133.53
2022-08-14T22:57:37.892Z,99130.56
2022-08-14T23:00:25.597Z,99131.31
2022-08-14T23:03:03.833Z,99124.28
2022-08-14T23:05:39.949Z,99142.88
2022-08-14T23:09:00.401Z,99141.53
2022-08-14T23:11:13.345Z,99142.88
2022-08-14T23:13:46.250Z,99142.06
2022-08-14T23:16:20.224Z,99147.72
2022-08-14T23:18:54.827Z,99156.06
2022-08-14T23:21:28.941Z,99157.09
2022-08-14T23:24:00.314Z,99164.09
2022-08-14T23:26:48.442Z,99168.63
2022-08-14T23:29:22.320Z,99161.34
2022-08-14T23:31:52.779Z,99170.19
2022-08-14T23:34:24.915Z,99169.41
2022-08-14T23:37:03.836Z,99165.06
2022-08-14T23:39:35.605Z,99173.63
2022-08-14T23:42:12.698Z,99168.72
2022-08-14T23:44:48.361Z,99169.75
2022-08-14T23:47:26.444Z,99172.66
2022-08-14T23:50:07.569Z,99180.72
2022-08-14T23:52:50.603Z,99178.22
2022-08-14T23:55:34.701Z,99184.56
2022-08-14T23:58:04.860Z,99191.28
